Time;durP1;ratioP1;P1;durP2;ratioP2;P2;SDS_P1;SDS_P2;PMS_P1;PMS_P2;Temp;Humidity;BMP_temperature;BMP_pressure;BME280_temperature;BME280_humidity;BME280_pressure;Samples;Min_cycle;Max_cycle;Signal;HPM_P1;HPM_P2
2023/04/03 05:02:34;;;;;;;;;18.00;17.00;;;;;;;;4960931;28;45307;-69
2023/04/03 05:04:59;;;;;;;;;20.33;19.67;;;;;;;;4961326;28;45386;-69
2023/04/03 05:07:25;;;;;;;;;26.67;20.33;;;;;;;;4963915;28;45282;-70
2023/04/03 05:09:50;;;;;;;;;20.00;17.00;;;;;;;;4960195;28;46324;-69
2023/04/03 05:12:15;;;;;;;;;21.25;18.25;;;;;;;;4974048;28;45347;-70
2023/04/03 05:14:41;;;;;;;;;19.33;18.33;;;;;;;;4967923;28;45366;-69
2023/04/03 05:17:06;;;;;;;;;20.67;18.67;;;;;;;;4963131;28;45523;-70
2023/04/03 05:19:31;;;;;;;;;23.67;22.00;;;;;;;;4967209;28;45706;-70
2023/04/03 05:21:56;;;;;;;;;19.00;18.67;;;;;;;;4951222;28;45371;-69
2023/04/03 05:24:22;;;;;;;;;21.67;19.67;;;;;;;;4965211;28;45571;-69
2023/04/03 05:26:47;;;;;;;;;18.00;17.00;;;;;;;;4968632;28;45353;-69
2023/04/03 05:29:12;;;;;;;;;21.67;18.67;;;;;;;;4964567;28;46332;-69
2023/04/03 05:31:37;;;;;;;;;24.00;20.67;;;;;;;;4969250;28;45472;-69
2023/04/03 05:34:02;;;;;;;;;19.00;16.00;;;;;;;;4944404;28;45400;-70
2023/04/03 05:36:28;;;;;;;;;18.00;17.00;;;;;;;;4959712;28;45470;-70
2023/04/03 05:38:53;;;;;;;;;16.00;13.33;;;;;;;;4964577;28;45428;-69
2023/04/03 05:41:20;;;;;;;;;20.33;19.33;;;;;;;;4937256;28;45411;-69
2023/04/03 05:43:45;;;;;;;;;23.00;22.33;;;;;;;;4947837;28;45891;-70
2023/04/03 05:46:17;;;;;;;;;23.33;19.00;;;;;;;;4968967;28;45482;-69
2023/04/03 05:48:42;;;;;;;;;19.67;18.33;;;;;;;;4960705;28;46304;-69
2023/04/03 05:51:12;;;;;;;;;23.00;20.00;;;;;;;;4946359;28;45433;-69
2023/04/03 05:53:38;;;;;;;;;19.33;19.33;;;;;;;;4950078;28;45423;-70
2023/04/03 05:56:03;;;;;;;;;22.75;22.75;;;;;;;;4964401;28;45440;-70
2023/04/03 05:58:28;;;;;;;;;26.00;24.75;;;;;;;;4961021;28;45484;-68
2023/04/03 06:00:53;;;;;;;;;24.33;22.00;;;;;;;;4958385;28;45504;-69
2023/04/03 06:03:18;;;;;;;;;24.33;21.33;;;;;;;;4958836;28;45572;-68
2023/04/03 06:05:44;;;;;;;;;20.67;18.67;;;;;;;;4959555;28;45410;-68
2023/04/03 06:08:09;;;;;;;;;27.67;22.33;;;;;;;;4958796;28;45713;-68
2023/04/03 06:10:35;;;;;;;;;29.33;26.67;;;;;;;;4944342;28;46146;-69
2023/04/03 06:13:00;;;;;;;;;24.33;23.33;;;;;;;;4958695;28;45522;-68
2023/04/03 06:15:26;;;;;;;;;27.33;26.00;;;;;;;;4958739;28;45359;-68
2023/04/03 06:17:51;;;;;;;;;24.67;21.33;;;;;;;;4953360;28;46684;-69
2023/04/03 06:20:16;;;;;;;;;31.67;25.00;;;;;;;;4966828;28;45612;-68
2023/04/03 06:22:42;;;;;;;;;28.67;21.67;;;;;;;;4964179;28;45543;-68
2023/04/03 06:25:07;;;;;;;;;25.00;23.00;;;;;;;;4959276;28;45413;-68
2023/04/03 06:27:32;;;;;;;;;19.67;19.67;;;;;;;;4959393;28;46184;-69
2023/04/03 06:29:57;;;;;;;;;28.67;25.33;;;;;;;;4959932;28;45405;-68
2023/04/03 06:32:23;;;;;;;;;26.67;21.33;;;;;;;;4943793;28;45501;-69
2023/04/03 06:34:48;;;;;;;;;26.67;22.33;;;;;;;;4944216;28;45347;-69
2023/04/03 06:37:18;;;;;;;;;29.75;23.25;;;;;;;;4940624;28;46860;-69
2023/04/03 06:39:43;;;;;;;;;22.50;21.25;;;;;;;;4956719;28;45687;-60
2023/04/03 06:42:08;;;;;;;;;20.67;19.00;;;;;;;;4952945;28;45428;-60
2023/04/03 06:44:34;;;;;;;;;26.67;23.00;;;;;;;;4959394;28;46053;-60
2023/04/03 06:47:00;;;;;;;;;27.67;24.33;;;;;;;;4944136;28;47226;-61
2023/04/03 06:49:25;;;;;;;;;26.67;25.67;;;;;;;;4956471;28;45614;-60
2023/04/03 06:51:51;;;;;;;;;26.00;20.00;;;;;;;;4956041;28;45705;-60
2023/04/03 06:54:16;;;;;;;;;24.67;22.67;;;;;;;;4958509;28;45339;-60
2023/04/03 06:56:42;;;;;;;;;26.67;24.00;;;;;;;;4970792;28;45539;-61
2023/04/03 06:59:08;;;;;;;;;32.00;26.67;;;;;;;;4959018;28;45942;-60
2023/04/03 07:01:33;;;;;;;;;27.00;27.00;;;;;;;;4965303;28;45776;-60
2023/04/03 07:03:58;;;;;;;;;25.67;22.00;;;;;;;;4969570;28;45441;-60
2023/04/03 07:06:26;;;;;;;;;25.67;24.33;;;;;;;;4960886;28;46114;-60
2023/04/03 07:08:51;;;;;;;;;26.33;21.33;;;;;;;;4967068;28;45438;-60
2023/04/03 07:11:17;;;;;;;;;23.67;22.00;;;;;;;;4952873;28;45717;-60
2023/04/03 07:13:42;;;;;;;;;31.00;25.00;;;;;;;;4957231;28;45505;-60
2023/04/03 07:16:08;;;;;;;;;31.33;26.33;;;;;;;;4953400;28;45580;-58
2023/04/03 07:18:33;;;;;;;;;21.00;21.00;;;;;;;;4959735;28;45762;-61
2023/04/03 07:20:59;;;;;;;;;21.33;19.67;;;;;;;;4957924;28;46456;-61
2023/04/03 07:23:24;;;;;;;;;21.33;18.33;;;;;;;;4977248;28;45500;-61
2023/04/03 07:25:51;;;;;;;;;26.33;25.00;;;;;;;;4957278;28;47063;-61
2023/04/03 07:28:17;;;;;;;;;23.33;20.33;;;;;;;;4959110;28;45526;-60
2023/04/03 07:30:53;;;;;;;;;26.67;20.00;;;;;;;;4943978;28;45516;-61
2023/04/03 07:33:19;;;;;;;;;27.67;20.67;;;;;;;;4939426;28;45622;-61
2023/04/03 07:35:45;;;;;;;;;22.67;22.67;;;;;;;;4975404;28;47112;-62
2023/04/03 07:38:10;;;;;;;;;22.33;20.00;;;;;;;;4967376;28;45650;-63
2023/04/03 07:40:37;;;;;;;;;19.00;19.00;;;;;;;;4945631;28;45764;-61
2023/04/03 07:43:02;;;;;;;;;30.33;21.33;;;;;;;;4961856;28;45803;-61
2023/04/03 07:45:27;;;;;;;;;22.67;20.00;;;;;;;;4958758;28;45368;-61
2023/04/03 07:47:53;;;;;;;;;23.00;22.00;;;;;;;;4958093;28;45459;-61
2023/04/03 07:50:18;;;;;;;;;25.33;22.33;;;;;;;;4961533;28;45485;-60
2023/04/03 07:52:44;;;;;;;;;21.33;20.00;;;;;;;;4962589;28;45385;-61
2023/04/03 07:55:09;;;;;;;;;22.33;19.67;;;;;;;;4962333;28;47370;-60
2023/04/03 07:57:35;;;;;;;;;22.33;16.67;;;;;;;;4965267;28;45439;-61
2023/04/03 08:00:00;;;;;;;;;22.33;17.67;;;;;;;;4960110;28;45387;-61
2023/04/03 08:02:26;;;;;;;;;24.00;21.00;;;;;;;;4947071;28;45454;-61
2023/04/03 08:04:51;;;;;;;;;20.67;19.67;;;;;;;;4970055;28;46719;-61
2023/04/03 08:07:17;;;;;;;;;23.67;17.67;;;;;;;;4958036;28;45360;-61
2023/04/03 08:09:42;;;;;;;;;25.33;20.67;;;;;;;;4941982;28;45553;-61
2023/04/03 08:12:07;;;;;;;;;24.00;18.67;;;;;;;;4968519;28;45550;-61
2023/04/03 08:14:34;;;;;;;;;26.00;20.33;;;;;;;;4961632;28;45988;-61
2023/04/03 08:17:00;;;;;;;;;26.67;17.33;;;;;;;;4961638;28;45602;-60
2023/04/03 08:19:25;;;;;;;;;20.33;17.67;;;;;;;;4964617;28;45389;-61
2023/04/03 08:21:50;;;;;;;;;18.33;18.33;;;;;;;;4962766;28;45771;-63
2023/04/03 08:24:16;;;;;;;;;18.33;18.33;;;;;;;;4961742;28;46041;-62
2023/04/03 08:26:41;;;;;;;;;18.67;17.67;;;;;;;;4961935;28;45460;-62
2023/04/03 08:29:06;;;;;;;;;19.67;16.00;;;;;;;;4961435;28;45627;-63
2023/04/03 08:31:32;;;;;;;;;14.33;13.67;;;;;;;;4965244;28;45466;-61
2023/04/03 08:33:57;;;;;;;;;15.33;15.33;;;;;;;;4944062;28;46921;-62
2023/04/03 08:36:24;;;;;;;;;16.00;15.00;;;;;;;;4961017;28;45417;-61
2023/04/03 08:38:50;;;;;;;;;13.67;13.67;;;;;;;;4943895;28;45340;-62
2023/04/03 08:41:30;;;;;;;;;14.00;13.33;;;;;;;;4960871;28;46002;-62
2023/04/03 08:44:04;;;;;;;;;14.67;12.67;;;;;;;;4961449;28;46986;-62
2023/04/03 08:46:48;;;;;;;;;12.67;11.00;;;;;;;;4960216;28;45402;-62
2023/04/03 08:49:20;;;;;;;;;11.67;11.67;;;;;;;;4959022;28;45401;-62
2023/04/03 08:51:46;;;;;;;;;15.67;11.33;;;;;;;;4957163;28;45481;-62
2023/04/03 08:54:22;;;;;;;;;6.00;6.00;;;;;;;;4961007;28;45501;-62
2023/04/03 08:56:47;;;;;;;;;11.00;11.00;;;;;;;;4938457;28;45471;-64
2023/04/03 08:59:18;;;;;;;;;9.33;9.00;;;;;;;;4961046;28;45640;-62
2023/04/03 09:01:44;;;;;;;;;8.00;8.00;;;;;;;;4961821;28;45533;-62
2023/04/03 09:04:13;;;;;;;;;7.00;7.00;;;;;;;;4959806;28;46070;-62
2023/04/03 09:06:39;;;;;;;;;11.67;8.00;;;;;;;;4961039;28;45556;-62
2023/04/03 09:09:25;;;;;;;;;13.67;11.33;;;;;;;;4961055;28;45793;-62
2023/04/03 09:11:53;;;;;;;;;15.00;15.00;;;;;;;;4959993;28;45404;-62
2023/04/03 09:14:24;;;;;;;;;11.00;10.00;;;;;;;;4957239;28;45600;-63
2023/04/03 09:17:00;;;;;;;;;13.33;10.00;;;;;;;;4960323;28;45717;-62
2023/04/03 09:19:28;;;;;;;;;11.67;11.00;;;;;;;;4956016;28;45414;-62
2023/04/03 09:21:55;;;;;;;;;12.67;10.00;;;;;;;;4959978;28;45464;-62
2023/04/03 09:24:23;;;;;;;;;8.33;8.33;;;;;;;;4959659;28;46576;-62
2023/04/03 09:26:59;;;;;;;;;9.00;8.33;;;;;;;;4966973;28;45461;-63
2023/04/03 09:29:25;;;;;;;;;10.00;8.00;;;;;;;;4964592;28;45515;-62
2023/04/03 09:31:55;;;;;;;;;10.00;10.00;;;;;;;;4961798;28;46341;-62
2023/04/03 09:34:22;;;;;;;;;9.00;9.00;;;;;;;;4961039;28;47067;-62
2023/04/03 09:36:49;;;;;;;;;7.33;7.33;;;;;;;;4960440;28;45441;-62
2023/04/03 09:39:16;;;;;;;;;8.00;8.00;;;;;;;;4959988;28;45836;-61
2023/04/03 09:41:41;;;;;;;;;7.33;7.33;;;;;;;;4960039;28;45658;-62
2023/04/03 09:44:23;;;;;;;;;9.00;9.00;;;;;;;;4942795;28;46073;-62
2023/04/03 09:46:49;;;;;;;;;9.00;9.00;;;;;;;;4960826;28;45442;-63
2023/04/03 09:49:14;;;;;;;;;1.00;0.67;;;;;;;;4960231;28;45503;-62
2023/04/03 09:51:40;;;;;;;;;8.33;8.33;;;;;;;;4974708;28;45422;-62
2023/04/03 09:54:26;;;;;;;;;10.67;10.67;;;;;;;;4943379;28;46473;-62
2023/04/03 09:56:53;;;;;;;;;9.00;7.00;;;;;;;;4955907;28;45689;-63
2023/04/03 09:59:18;;;;;;;;;7.67;6.33;;;;;;;;4964523;28;45529;-62
2023/04/03 10:01:57;;;;;;;;;4.00;4.00;;;;;;;;4961046;28;45587;-60
2023/04/03 10:04:22;;;;;;;;;7.67;7.67;;;;;;;;4954725;28;45737;-62
2023/04/03 10:06:49;;;;;;;;;9.00;8.00;;;;;;;;4959278;28;45445;-61
2023/04/03 10:09:15;;;;;;;;;6.00;6.00;;;;;;;;4956953;28;45314;-62
2023/04/03 10:11:56;;;;;;;;;6.00;6.00;;;;;;;;4959222;28;45592;-62
2023/04/03 10:14:21;;;;;;;;;7.00;6.33;;;;;;;;4947230;28;46187;-63
2023/04/03 10:16:57;;;;;;;;;8.67;7.00;;;;;;;;4956274;28;45857;-62
2023/04/03 10:19:25;;;;;;;;;4.67;4.67;;;;;;;;4959989;28;45469;-61
2023/04/03 10:21:56;;;;;;;;;5.67;5.00;;;;;;;;4959839;28;45600;-61
2023/04/03 10:24:25;;;;;;;;;6.00;6.00;;;;;;;;4959331;28;46242;-61
2023/04/03 10:26:56;;;;;;;;;6.00;6.00;;;;;;;;4960650;28;45456;-62
2023/04/03 10:29:28;;;;;;;;;5.33;5.33;;;;;;;;4940382;28;45363;-62
2023/04/03 10:32:12;;;;;;;;;5.67;5.00;;;;;;;;4946003;28;45510;-62
2023/04/03 10:34:43;;;;;;;;;5.33;4.67;;;;;;;;4980327;28;46310;-62
2023/04/03 10:37:11;;;;;;;;;6.00;5.33;;;;;;;;4949337;28;45886;-61
2023/04/03 10:39:55;;;;;;;;;5.00;5.00;;;;;;;;4966920;28;45489;-62
2023/04/03 10:42:43;;;;;;;;;8.00;7.00;;;;;;;;4960278;28;46331;-62
2023/04/03 10:45:26;;;;;;;;;7.00;7.00;;;;;;;;4954085;28;45346;-62
2023/04/03 10:47:58;;;;;;;;;4.67;4.67;;;;;;;;4958533;28;45765;-64
2023/04/03 10:50:36;;;;;;;;;7.00;6.67;;;;;;;;4937375;28;45595;-62
2023/04/03 10:53:06;;;;;;;;;6.75;6.75;;;;;;;;4957727;28;45512;-62
2023/04/03 10:55:37;;;;;;;;;7.00;7.00;;;;;;;;4958496;28;47215;-62
2023/04/03 10:58:04;;;;;;;;;4.25;4.25;;;;;;;;4956770;28;45394;-62
2023/04/03 11:00:33;;;;;;;;;5.00;5.00;;;;;;;;4958236;28;45788;-62
2023/04/03 11:03:03;;;;;;;;;5.50;5.00;;;;;;;;4953354;28;45478;-62
2023/04/03 11:05:54;;;;;;;;;5.00;5.00;;;;;;;;4956941;28;46117;-62
2023/04/03 11:08:49;;;;;;;;;13.50;8.75;;;;;;;;4948948;28;45472;-62
2023/04/03 11:11:21;;;;;;;;;6.50;6.50;;;;;;;;4944610;28;45453;-62
2023/04/03 11:14:10;;;;;;;;;5.00;5.00;;;;;;;;4958840;28;45501;-62
2023/04/03 11:16:42;;;;;;;;;5.50;5.50;;;;;;;;4919796;28;47357;-62
2023/04/03 11:19:08;;;;;;;;;5.75;5.25;;;;;;;;4954813;28;45556;-63
2023/04/03 11:21:38;;;;;;;;;5.00;3.00;;;;;;;;4960000;28;45448;-63
2023/04/03 11:24:07;;;;;;;;;3.50;3.50;;;;;;;;4957854;28;45893;-63
2023/04/03 11:26:37;;;;;;;;;2.00;2.00;;;;;;;;4958044;28;46211;-59
2023/04/03 11:29:06;;;;;;;;;4.00;4.00;;;;;;;;4955775;28;46554;-60
2023/04/03 11:31:50;;;;;;;;;8.00;8.00;;;;;;;;4957182;28;45726;-59
2023/04/03 11:34:18;;;;;;;;;7.00;6.67;;;;;;;;4958580;28;45758;-59
2023/04/03 11:36:48;;;;;;;;;5.00;5.00;;;;;;;;4959165;28;46345;-59
2023/04/03 11:39:34;;;;;;;;;5.00;5.00;;;;;;;;4959538;28;45369;-59
2023/04/03 11:42:22;;;;;;;;;5.00;4.75;;;;;;;;4957505;28;45477;-59
2023/04/03 11:44:48;;;;;;;;;5.50;4.25;;;;;;;;4960749;28;45623;-59
2023/04/03 11:47:33;;;;;;;;;4.00;4.00;;;;;;;;4960905;28;46433;-59
2023/04/03 11:49:59;;;;;;;;;6.33;4.33;;;;;;;;4964359;28;45521;-59
2023/04/03 11:52:39;;;;;;;;;6.00;5.75;;;;;;;;4975320;28;45467;-59
2023/04/03 11:55:23;;;;;;;;;4.00;4.00;;;;;;;;4957457;28;45479;-59
2023/04/03 11:57:52;;;;;;;;;3.25;3.25;;;;;;;;4961383;28;45464;-59
2023/04/03 12:00:38;;;;;;;;;4.25;4.25;;;;;;;;4961062;28;45360;-60
2023/04/03 12:03:23;;;;;;;;;3.75;3.75;;;;;;;;4948260;28;45441;-59
2023/04/03 12:05:49;;;;;;;;;4.00;4.00;;;;;;;;4961747;28;45406;-60
2023/04/03 12:08:37;;;;;;;;;3.75;3.75;;;;;;;;4961303;28;45735;-60
2023/04/03 12:11:08;;;;;;;;;3.00;3.00;;;;;;;;4947317;28;45598;-59
2023/04/03 12:13:34;;;;;;;;;5.00;5.00;;;;;;;;4975269;28;45408;-59
2023/04/03 12:16:00;;;;;;;;;5.50;5.25;;;;;;;;4957049;28;45484;-59
2023/04/03 12:18:40;;;;;;;;;5.25;5.25;;;;;;;;4939237;28;45834;-59
2023/04/03 12:21:05;;;;;;;;;5.00;5.00;;;;;;;;4960446;28;45381;-65
2023/04/03 12:23:35;;;;;;;;;5.75;4.75;;;;;;;;4972489;28;45394;-59
2023/04/03 12:26:19;;;;;;;;;6.00;4.75;;;;;;;;4962078;28;45521;-59
2023/04/03 12:28:46;;;;;;;;;3.00;3.00;;;;;;;;4960350;28;46322;-59
2023/04/03 12:31:11;;;;;;;;;4.00;4.00;;;;;;;;4971170;28;46076;-59
2023/04/03 12:33:43;;;;;;;;;6.00;6.00;;;;;;;;4960168;28;45505;-60
2023/04/03 12:36:12;;;;;;;;;7.00;5.33;;;;;;;;4976198;28;45441;-59
2023/04/03 12:38:56;;;;;;;;;5.67;4.67;;;;;;;;4951307;28;46320;-59
2023/04/03 12:41:21;;;;;;;;;3.00;3.00;;;;;;;;4975793;28;45794;-60
2023/04/03 12:43:46;;;;;;;;;5.33;5.33;;;;;;;;4961543;28;45454;-59
2023/04/03 12:46:15;;;;;;;;;8.00;6.75;;;;;;;;4955553;28;45401;-59
2023/04/03 12:48:47;;;;;;;;;5.67;5.67;;;;;;;;4978672;28;45594;-59
2023/04/03 12:51:18;;;;;;;;;5.67;5.67;;;;;;;;4975348;28;45697;-59
2023/04/03 12:53:43;;;;;;;;;4.33;4.33;;;;;;;;4968203;28;45441;-59
2023/04/03 12:56:26;;;;;;;;;5.33;5.33;;;;;;;;4975614;28;45553;-59
2023/04/03 12:58:52;;;;;;;;;4.00;4.00;;;;;;;;4974574;28;46074;-59
2023/04/03 13:01:20;;;;;;;;;5.67;4.00;;;;;;;;4977901;28;45361;-59
2023/04/03 13:03:47;;;;;;;;;5.33;5.33;;;;;;;;4975919;28;45243;-59
2023/04/03 13:06:39;;;;;;;;;6.67;5.00;;;;;;;;4971347;28;45313;-59
2023/04/03 13:09:06;;;;;;;;;1.00;1.00;;;;;;;;4957722;28;46022;-59
2023/04/03 13:11:35;;;;;;;;;7.33;4.00;;;;;;;;4961418;28;45816;-59
2023/04/03 13:14:05;;;;;;;;;5.33;5.33;;;;;;;;4961466;28;45291;-59
2023/04/03 13:16:31;;;;;;;;;7.00;5.33;;;;;;;;4955861;28;45498;-59
2023/04/03 13:18:56;;;;;;;;;4.00;2.00;;;;;;;;4960772;28;45446;-59
2023/04/03 13:21:27;;;;;;;;;5.67;4.00;;;;;;;;4942553;28;45422;-59
2023/04/03 13:23:55;;;;;;;;;5.00;5.00;;;;;;;;4975756;28;45330;-59
2023/04/03 13:26:21;;;;;;;;;4.00;4.00;;;;;;;;4960239;28;45326;-59
2023/04/03 13:28:47;;;;;;;;;5.67;5.67;;;;;;;;4961019;28;45586;-59
2023/04/03 13:31:16;;;;;;;;;3.00;2.00;;;;;;;;4960688;28;45385;-59
2023/04/03 13:33:51;;;;;;;;;6.00;6.00;;;;;;;;4961357;28;45389;-59
2023/04/03 13:36:18;;;;;;;;;5.67;4.67;;;;;;;;4966354;28;45451;-59
2023/04/03 13:38:43;;;;;;;;;5.00;5.00;;;;;;;;4960767;28;45497;-59
2023/04/03 13:41:30;;;;;;;;;5.33;5.00;;;;;;;;4960168;28;45365;-59
2023/04/03 13:43:55;;;;;;;;;6.33;4.00;;;;;;;;4960658;28;45338;-59
2023/04/03 13:46:25;;;;;;;;;4.00;4.00;;;;;;;;4963830;28;45788;-59
2023/04/03 13:48:52;;;;;;;;;6.33;5.33;;;;;;;;4959167;28;45311;-59
2023/04/03 13:51:20;;;;;;;;;5.67;5.67;;;;;;;;4962615;28;45396;-59
2023/04/03 13:53:50;;;;;;;;;3.67;3.67;;;;;;;;4956477;28;45508;-59
2023/04/03 13:56:25;;;;;;;;;6.00;6.00;;;;;;;;4959786;28;45524;-59
2023/04/03 13:58:55;;;;;;;;;4.33;4.33;;;;;;;;4966920;28;45790;-59
2023/04/03 14:01:22;;;;;;;;;5.00;5.00;;;;;;;;4945330;28;45611;-59
2023/04/03 14:03:56;;;;;;;;;4.33;4.00;;;;;;;;4961454;28;45730;-59
2023/04/03 14:06:21;;;;;;;;;7.33;6.00;;;;;;;;4942755;28;45739;-59
2023/04/03 14:08:48;;;;;;;;;5.00;3.67;;;;;;;;4960536;28;45621;-59
2023/04/03 14:11:16;;;;;;;;;4.33;4.33;;;;;;;;4941941;28;45304;-59
2023/04/03 14:13:43;;;;;;;;;4.67;4.00;;;;;;;;4965722;28;45430;-59
2023/04/03 14:16:12;;;;;;;;;4.00;4.00;;;;;;;;4962168;28;45430;-59
2023/04/03 14:18:37;;;;;;;;;4.33;4.33;;;;;;;;4980875;28;46334;-59
2023/04/03 14:21:02;;;;;;;;;5.33;5.33;;;;;;;;4959814;28;46329;-59
2023/04/03 14:23:27;;;;;;;;;5.00;5.00;;;;;;;;4962145;28;45252;-59
2023/04/03 14:25:53;;;;;;;;;3.67;3.67;;;;;;;;4961141;28;45370;-58
2023/04/03 14:28:20;;;;;;;;;5.00;5.00;;;;;;;;4961635;28;45782;-58
2023/04/03 14:30:46;;;;;;;;;6.67;4.67;;;;;;;;4938864;28;45554;-59
2023/04/03 14:33:13;;;;;;;;;4.33;4.33;;;;;;;;4944899;28;45931;-58
2023/04/03 14:35:38;;;;;;;;;3.67;3.67;;;;;;;;4955921;28;45533;-58
2023/04/03 14:38:05;;;;;;;;;5.00;5.00;;;;;;;;4957610;28;45667;-58
2023/04/03 14:40:30;;;;;;;;;5.00;4.00;;;;;;;;4934776;28;45883;-59
2023/04/03 14:42:57;;;;;;;;;4.33;4.33;;;;;;;;4943154;28;45496;-59
2023/04/03 14:45:22;;;;;;;;;6.00;4.00;;;;;;;;4955738;28;45898;-59
2023/04/03 14:47:52;;;;;;;;;5.67;4.33;;;;;;;;4958461;28;45891;-58
2023/04/03 14:50:20;;;;;;;;;5.67;5.33;;;;;;;;4955139;28;45659;-59
2023/04/03 14:52:46;;;;;;;;;5.00;5.00;;;;;;;;4942637;28;45760;-59
2023/04/03 14:55:12;;;;;;;;;6.00;6.00;;;;;;;;4958270;28;45542;-60
2023/04/03 14:57:37;;;;;;;;;6.67;6.67;;;;;;;;4955684;28;45494;-59
2023/04/03 15:00:03;;;;;;;;;6.67;5.00;;;;;;;;4958687;28;45971;-59
2023/04/03 15:02:30;;;;;;;;;5.00;5.00;;;;;;;;4963555;28;45687;-59
2023/04/03 15:04:56;;;;;;;;;6.67;6.67;;;;;;;;4950461;28;46481;-60
2023/04/03 15:07:22;;;;;;;;;7.00;6.00;;;;;;;;4956417;28;46619;-59
2023/04/03 15:09:48;;;;;;;;;5.00;4.67;;;;;;;;4957356;28;45896;-59
2023/04/03 15:12:13;;;;;;;;;6.33;6.00;;;;;;;;4957594;28;45435;-60
2023/04/03 15:14:38;;;;;;;;;3.33;3.33;;;;;;;;4957378;28;45434;-59
2023/04/03 15:17:04;;;;;;;;;4.00;3.67;;;;;;;;4960441;28;45799;-59
2023/04/03 15:19:35;;;;;;;;;4.67;4.67;;;;;;;;4959547;28;46634;-58
2023/04/03 15:22:00;;;;;;;;;4.00;4.00;;;;;;;;4956206;28;45658;-59
2023/04/03 15:24:26;;;;;;;;;4.67;4.00;;;;;;;;4957121;28;45493;-58
2023/04/03 15:26:51;;;;;;;;;5.00;5.00;;;;;;;;4958865;28;45759;-58
2023/04/03 15:29:16;;;;;;;;;5.67;5.00;;;;;;;;4956819;28;45621;-58
2023/04/03 15:31:41;;;;;;;;;4.33;4.33;;;;;;;;4958222;28;45704;-59
2023/04/03 15:34:06;;;;;;;;;4.00;4.00;;;;;;;;4957879;28;45387;-58
2023/04/03 15:36:31;;;;;;;;;5.00;5.00;;;;;;;;4957814;28;46466;-58
2023/04/03 15:38:57;;;;;;;;;5.67;4.67;;;;;;;;4958047;28;45526;-58
2023/04/03 15:41:22;;;;;;;;;6.00;5.67;;;;;;;;4957101;28;45664;-59
2023/04/03 15:43:47;;;;;;;;;7.33;4.00;;;;;;;;4940479;28;45295;-58
2023/04/03 15:46:13;;;;;;;;;3.67;3.67;;;;;;;;4956952;28;46337;-59
2023/04/03 15:48:38;;;;;;;;;4.67;4.67;;;;;;;;4945126;28;45573;-58
2023/04/03 15:51:04;;;;;;;;;3.33;2.00;;;;;;;;4960519;28;45678;-59
2023/04/03 15:53:30;;;;;;;;;5.67;5.33;;;;;;;;4953240;28;45590;-59
2023/04/03 15:55:55;;;;;;;;;3.33;3.33;;;;;;;;4957378;28;46325;-59
2023/04/03 15:58:20;;;;;;;;;5.00;4.00;;;;;;;;4961668;28;45668;-58
2023/04/03 16:00:45;;;;;;;;;6.33;4.00;;;;;;;;4958128;28;45302;-59
2023/04/03 16:03:12;;;;;;;;;5.33;4.67;;;;;;;;4957745;28;45490;-59
2023/04/03 16:05:38;;;;;;;;;5.33;5.33;;;;;;;;4956859;28;45692;-58
2023/04/03 16:08:05;;;;;;;;;4.33;4.33;;;;;;;;4959311;28;45450;-58
2023/04/03 16:10:30;;;;;;;;;3.67;3.67;;;;;;;;4964936;28;45389;-58
2023/04/03 16:12:55;;;;;;;;;8.33;5.33;;;;;;;;4959223;28;45545;-58
2023/04/03 16:15:21;;;;;;;;;5.33;5.33;;;;;;;;4956174;28;46599;-58
2023/04/03 16:17:47;;;;;;;;;1.00;1.00;;;;;;;;4963320;28;45689;-59
2023/04/03 16:20:13;;;;;;;;;5.00;5.00;;;;;;;;4964139;28;45577;-59
2023/04/03 16:22:38;;;;;;;;;3.00;3.00;;;;;;;;4933666;28;45754;-59
2023/04/03 16:25:05;;;;;;;;;5.00;4.00;;;;;;;;4943821;28;48004;-60
2023/04/03 16:27:30;;;;;;;;;3.33;3.33;;;;;;;;4958242;28;45552;-59
2023/04/03 16:29:56;;;;;;;;;3.33;3.33;;;;;;;;4946847;28;45513;-59
2023/04/03 16:32:23;;;;;;;;;5.67;5.67;;;;;;;;4945207;28;45039;-59
2023/04/03 16:34:49;;;;;;;;;5.33;5.33;;;;;;;;4949604;28;45551;-59
2023/04/03 16:37:15;;;;;;;;;5.50;4.00;;;;;;;;4963627;28;45439;-60
2023/04/03 16:39:41;;;;;;;;;3.33;2.67;;;;;;;;4947457;28;45427;-59
2023/04/03 16:42:06;;;;;;;;;5.00;5.00;;;;;;;;4952039;28;45496;-59
2023/04/03 16:44:31;;;;;;;;;4.33;4.33;;;;;;;;4950608;28;46914;-59
2023/04/03 16:46:57;;;;;;;;;4.67;4.00;;;;;;;;4965065;28;45435;-59
2023/04/03 16:49:22;;;;;;;;;5.33;5.00;;;;;;;;4960443;28;45410;-59
2023/04/03 16:51:48;;;;;;;;;5.00;4.67;;;;;;;;4941316;28;46455;-59
2023/04/03 16:54:14;;;;;;;;;5.00;5.00;;;;;;;;4961258;28;46262;-58
2023/04/03 16:56:40;;;;;;;;;5.67;4.00;;;;;;;;4962221;28;45849;-58
2023/04/03 16:59:05;;;;;;;;;4.00;4.00;;;;;;;;4962893;28;45733;-60
2023/04/03 17:01:30;;;;;;;;;7.33;6.33;;;;;;;;4964548;28;45770;-59
2023/04/03 17:03:55;;;;;;;;;5.00;4.67;;;;;;;;4962184;28;45499;-59
2023/04/03 17:06:23;;;;;;;;;4.33;4.33;;;;;;;;4957485;28;45900;-59
2023/04/03 17:08:49;;;;;;;;;4.33;4.33;;;;;;;;4961039;28;45449;-59
2023/04/03 17:11:14;;;;;;;;;7.00;5.00;;;;;;;;4959243;28;45402;-59
2023/04/03 17:13:40;;;;;;;;;5.33;5.33;;;;;;;;4941130;28;47915;-59
2023/04/03 17:16:06;;;;;;;;;6.00;6.00;;;;;;;;4955236;28;45549;-59
2023/04/03 17:18:33;;;;;;;;;4.00;4.00;;;;;;;;4956951;28;45584;-59
2023/04/03 17:20:58;;;;;;;;;3.33;3.33;;;;;;;;4945936;28;45577;-60
2023/04/03 17:23:28;;;;;;;;;5.00;5.00;;;;;;;;4937743;28;46804;-59
2023/04/03 17:25:54;;;;;;;;;6.00;5.00;;;;;;;;4955012;28;45605;-59
2023/04/03 17:28:19;;;;;;;;;5.00;5.00;;;;;;;;4957843;28;45548;-59
2023/04/03 17:30:44;;;;;;;;;6.00;4.00;;;;;;;;4956738;28;45656;-60
2023/04/03 17:33:10;;;;;;;;;8.67;4.33;;;;;;;;4958378;28;45555;-59
2023/04/03 17:35:35;;;;;;;;;6.00;3.33;;;;;;;;4959303;28;45731;-58
2023/04/03 17:38:00;;;;;;;;;4.33;4.33;;;;;;;;4958721;28;45469;-58
2023/04/03 17:40:25;;;;;;;;;7.00;6.00;;;;;;;;4957233;28;45484;-58
2023/04/03 17:42:51;;;;;;;;;4.00;4.00;;;;;;;;4962488;28;45519;-58
2023/04/03 17:45:16;;;;;;;;;3.00;3.00;;;;;;;;4946152;28;45589;-59
2023/04/03 17:47:41;;;;;;;;;11.33;11.00;;;;;;;;4959640;28;45525;-59
2023/04/03 17:50:07;;;;;;;;;10.00;8.00;;;;;;;;4941501;28;45534;-59
2023/04/03 17:52:32;;;;;;;;;5.33;5.33;;;;;;;;4960615;28;45289;-59
2023/04/03 17:54:57;;;;;;;;;4.00;3.00;;;;;;;;4944435;28;45405;-59
2023/04/03 17:57:23;;;;;;;;;5.00;5.00;;;;;;;;4959883;28;45441;-59
2023/04/03 17:59:48;;;;;;;;;5.00;4.00;;;;;;;;4960792;28;45690;-58
2023/04/03 18:02:13;;;;;;;;;4.33;3.33;;;;;;;;4954230;28;45514;-59
2023/04/03 18:04:38;;;;;;;;;9.33;9.33;;;;;;;;4944891;28;45417;-59
2023/04/03 18:07:08;;;;;;;;;7.00;7.00;;;;;;;;4959754;28;45573;-59
2023/04/03 18:09:34;;;;;;;;;5.67;5.33;;;;;;;;4957616;28;45669;-59
2023/04/03 18:12:01;;;;;;;;;4.00;4.00;;;;;;;;4966393;28;45484;-58
2023/04/03 18:14:27;;;;;;;;;8.33;7.00;;;;;;;;4942468;28;45578;-60
2023/04/03 18:16:52;;;;;;;;;7.33;5.67;;;;;;;;4956450;28;45385;-58
2023/04/03 18:19:17;;;;;;;;;10.00;8.00;;;;;;;;4956383;28;45563;-59
2023/04/03 18:21:44;;;;;;;;;5.33;4.33;;;;;;;;4957101;28;45630;-59
2023/04/03 18:24:11;;;;;;;;;10.00;8.67;;;;;;;;4957632;28;45473;-59
2023/04/03 18:26:36;;;;;;;;;3.67;3.00;;;;;;;;4959085;28;45833;-59
2023/04/03 18:29:03;;;;;;;;;6.00;4.00;;;;;;;;4958865;28;45598;-60
2023/04/03 18:31:30;;;;;;;;;6.00;6.00;;;;;;;;4958579;28;46356;-59
2023/04/03 18:33:57;;;;;;;;;7.33;7.33;;;;;;;;4958208;28;45512;-60
2023/04/03 18:36:23;;;;;;;;;6.67;5.00;;;;;;;;4958199;28;45392;-59
2023/04/03 18:38:48;;;;;;;;;5.00;5.00;;;;;;;;4958324;28;45596;-59
2023/04/03 18:41:13;;;;;;;;;4.33;4.33;;;;;;;;4940913;28;48471;-59
2023/04/03 18:43:39;;;;;;;;;4.67;3.67;;;;;;;;4956714;28;45495;-59
2023/04/03 18:46:05;;;;;;;;;5.00;5.00;;;;;;;;4955877;28;45852;-59
2023/04/03 18:48:31;;;;;;;;;3.33;3.33;;;;;;;;4958599;28;46362;-59
2023/04/03 18:50:56;;;;;;;;;7.00;5.00;;;;;;;;4958157;28;45409;-59
2023/04/03 18:53:21;;;;;;;;;3.00;2.33;;;;;;;;4957068;28;45437;-57
2023/04/03 18:55:47;;;;;;;;;5.00;5.00;;;;;;;;4956526;28;45469;-58
2023/04/03 18:58:12;;;;;;;;;9.33;7.67;;;;;;;;4957684;28;45487;-58
2023/04/03 19:00:38;;;;;;;;;5.67;4.67;;;;;;;;4959137;28;45446;-58
2023/04/03 19:03:04;;;;;;;;;5.33;4.00;;;;;;;;4958358;28;45431;-58
2023/04/03 19:05:30;;;;;;;;;7.00;5.67;;;;;;;;4943882;28;45408;-59
2023/04/03 19:07:56;;;;;;;;;6.33;5.67;;;;;;;;4957228;28;45771;-59
2023/04/03 19:10:22;;;;;;;;;8.00;5.00;;;;;;;;4957937;28;45515;-58
2023/04/03 19:12:48;;;;;;;;;4.00;4.00;;;;;;;;4956753;28;45586;-58
2023/04/03 19:15:14;;;;;;;;;4.00;4.00;;;;;;;;4964262;28;45538;-59
2023/04/03 19:17:40;;;;;;;;;5.00;5.00;;;;;;;;4954814;28;45457;-59
2023/04/03 19:20:06;;;;;;;;;6.00;6.00;;;;;;;;4941547;28;47226;-58
2023/04/03 19:22:31;;;;;;;;;8.00;6.67;;;;;;;;4956914;28;45898;-58
2023/04/03 19:24:57;;;;;;;;;5.33;4.00;;;;;;;;4953748;28;45725;-58
2023/04/03 19:27:22;;;;;;;;;5.33;5.33;;;;;;;;4937682;28;45795;-58
2023/04/03 19:29:47;;;;;;;;;9.00;8.33;;;;;;;;4937729;28;47948;-58
2023/04/03 19:32:13;;;;;;;;;9.33;8.00;;;;;;;;4957921;28;45537;-58
2023/04/03 19:34:38;;;;;;;;;13.00;12.33;;;;;;;;4959679;28;45654;-58
2023/04/03 19:37:03;;;;;;;;;10.33;9.00;;;;;;;;4955933;28;45718;-58
2023/04/03 19:39:32;;;;;;;;;6.67;6.33;;;;;;;;4941650;28;46494;-58
2023/04/03 19:41:58;;;;;;;;;9.00;9.00;;;;;;;;4956912;28;45453;-58